createdAt,value
2023-04-15T00:01:51.865Z,22.46
2023-04-15T00:04:18.916Z,22.45
2023-04-15T00:06:49.987Z,22.43
2023-04-15T00:09:18.154Z,22.43
2023-04-15T00:11:44.957Z,22.39
2023-04-15T00:14:12.376Z,22.44
2023-04-15T00:16:39.358Z,22.41
2023-04-15T00:19:06.211Z,22.37
2023-04-15T00:21:33.220Z,22.33
2023-04-15T00:24:00.005Z,22.35
2023-04-15T00:26:28.158Z,22.32
2023-04-15T00:28:54.997Z,22.33
2023-04-15T00:31:21.997Z,22.33
2023-04-15T00:33:48.920Z,22.34
2023-04-15T00:36:15.732Z,22.36
2023-04-15T00:38:42.526Z,22.38
2023-04-15T00:41:09.881Z,22.41
2023-04-15T00:43:38.061Z,22.44
2023-04-15T00:46:05.331Z,22.46
2023-04-15T00:48:32.230Z,22.45
2023-04-15T00:50:59.236Z,22.40
2023-04-15T00:53:26.039Z,22.40
2023-04-15T00:55:53.766Z,22.42
2023-04-15T00:58:20.638Z,22.41
2023-04-15T01:00:48.828Z,22.41
2023-04-15T01:03:18.658Z,22.40
2023-04-15T01:05:45.781Z,22.39
2023-04-15T01:08:12.687Z,22.35
2023-04-15T01:10:39.559Z,22.32
2023-04-15T01:13:06.377Z,22.30
2023-04-15T01:15:33.176Z,22.32
2023-04-15T01:18:02.279Z,22.34
2023-04-15T01:20:29.376Z,22.28
2023-04-15T01:22:56.420Z,22.28
2023-04-15T01:25:30.558Z,22.31
2023-04-15T01:27:57.354Z,22.36
2023-04-15T01:30:24.142Z,22.39
2023-04-15T01:32:51.034Z,22.34
2023-04-15T01:35:17.874Z,22.39
2023-04-15T01:37:45.203Z,22.36
2023-04-15T01:40:12.105Z,22.40
2023-04-15T01:42:40.265Z,22.41
2023-04-15T01:45:07.706Z,22.39
2023-04-15T01:47:34.547Z,22.36
2023-04-15T01:50:01.423Z,22.35
2023-04-15T01:52:28.260Z,22.36
2023-04-15T01:54:55.073Z,22.35
2023-04-15T01:57:21.922Z,22.35
2023-04-15T01:59:50.081Z,22.33
2023-04-15T02:02:17.008Z,22.31
2023-04-15T02:04:43.827Z,22.29
2023-04-15T02:07:10.670Z,22.23
2023-04-15T02:09:37.530Z,22.29
2023-04-15T02:12:06.402Z,22.35
2023-04-15T02:14:33.229Z,22.46
2023-04-15T02:17:01.386Z,22.54
2023-04-15T02:19:28.158Z,22.71
2023-04-15T02:21:54.949Z,22.99
2023-04-15T02:24:21.768Z,23.05
2023-04-15T02:26:48.568Z,23.15
2023-04-15T02:29:15.363Z,23.22
2023-04-15T02:31:42.300Z,23.25
2023-04-15T02:34:10.552Z,23.23
2023-04-15T02:36:37.378Z,23.21
2023-04-15T02:39:04.410Z,23.25
2023-04-15T02:41:31.274Z,23.17
2023-04-15T02:43:58.329Z,23.11
2023-04-15T02:46:25.240Z,23.09
2023-04-15T02:48:52.064Z,23.06
2023-04-15T02:51:21.137Z,23.09
2023-04-15T02:53:48.265Z,23.04
2023-04-15T02:56:15.338Z,22.95
2023-04-15T02:58:42.166Z,22.88
2023-04-15T03:01:09.021Z,22.79
2023-04-15T03:03:36.251Z,22.77
2023-04-15T03:06:03.220Z,22.79
2023-04-15T03:08:31.516Z,22.79
2023-04-15T03:10:58.469Z,22.81
2023-04-15T03:13:25.310Z,22.78
2023-04-15T03:15:52.213Z,22.80
2023-04-15T03:18:19.087Z,22.76
2023-04-15T03:20:45.924Z,22.74
2023-04-15T03:23:12.794Z,22.71
2023-04-15T03:25:40.966Z,22.73
2023-04-15T03:28:07.770Z,22.71
2023-04-15T03:30:34.580Z,22.72
2023-04-15T03:33:01.503Z,22.69
2023-04-15T03:35:28.427Z,22.69
2023-04-15T03:37:55.234Z,22.64
2023-04-15T03:40:22.045Z,22.62
2023-04-15T03:42:50.205Z,22.56
2023-04-15T03:45:17.128Z,22.56
2023-04-15T03:47:43.989Z,22.60
2023-04-15T03:50:10.866Z,22.60
2023-04-15T03:52:37.712Z,22.69
2023-04-15T03:55:04.827Z,22.75
2023-04-15T03:57:31.622Z,22.79
2023-04-15T03:59:59.815Z,22.88
2023-04-15T04:02:26.921Z,22.90
2023-04-15T04:04:54.061Z,23.01
2023-04-15T04:07:23.322Z,23.06
2023-04-15T04:09:50.251Z,23.08
2023-04-15T04:12:17.040Z,23.11
2023-04-15T04:14:43.889Z,23.09
2023-04-15T04:17:12.069Z,23.09
2023-04-15T04:19:38.934Z,23.14
2023-04-15T04:22:05.984Z,23.17
2023-04-15T04:24:32.820Z,23.21
2023-04-15T04:26:59.802Z,23.18
2023-04-15T04:29:26.612Z,23.24
2023-04-15T04:31:53.508Z,23.30
2023-04-15T04:34:21.732Z,23.31
2023-04-15T04:36:48.589Z,23.33
2023-04-15T04:39:15.409Z,23.40
2023-04-15T04:41:42.202Z,23.37
2023-04-15T04:44:09.131Z,23.36
2023-04-15T04:46:35.925Z,23.32
2023-04-15T04:49:02.875Z,23.34
2023-04-15T04:51:31.472Z,23.36
2023-04-15T04:53:58.301Z,23.41
2023-04-15T04:56:25.088Z,23.35
2023-04-15T04:58:51.937Z,23.27
2023-04-15T05:01:18.782Z,23.26
2023-04-15T05:03:45.721Z,23.22
2023-04-15T05:06:12.684Z,23.19
2023-04-15T05:08:40.859Z,23.19
2023-04-15T05:11:07.653Z,23.14
2023-04-15T05:13:34.505Z,23.08
2023-04-15T05:16:01.605Z,22.90
2023-04-15T05:18:28.450Z,23.08
2023-04-15T05:20:55.349Z,23.02
2023-04-15T05:23:22.198Z,22.89
2023-04-15T05:25:50.360Z,22.83
2023-04-15T05:28:17.247Z,22.81
2023-04-15T05:30:44.100Z,22.84
2023-04-15T05:33:11.225Z,22.87
2023-04-15T05:35:38.060Z,22.92
2023-04-15T05:38:04.884Z,22.95
2023-04-15T05:40:31.762Z,22.92
2023-04-15T05:42:59.955Z,22.84
2023-04-15T05:45:26.756Z,22.81
2023-04-15T05:47:53.658Z,22.77
2023-04-15T05:50:20.521Z,22.75
2023-04-15T05:52:47.380Z,22.76
2023-04-15T05:55:14.219Z,22.74
2023-04-15T05:57:41.098Z,22.74
2023-04-15T06:00:10.014Z,22.73
2023-04-15T06:02:36.923Z,22.77
2023-04-15T06:05:04.114Z,22.96
2023-04-15T06:07:31.000Z,23.10
2023-04-15T06:09:57.788Z,23.17
2023-04-15T06:12:24.738Z,23.21
2023-04-15T06:14:51.519Z,23.32
2023-04-15T06:17:19.723Z,23.24
2023-04-15T06:19:46.591Z,23.41
2023-04-15T06:22:13.402Z,23.24
2023-04-15T06:24:40.352Z,23.06
2023-04-15T06:27:07.227Z,22.94
2023-04-15T06:29:34.050Z,22.90
2023-04-15T06:32:00.845Z,23.04
2023-04-15T06:34:29.083Z,23.59
2023-04-15T06:36:55.878Z,23.86
2023-04-15T06:39:22.688Z,23.95
2023-04-15T06:41:49.515Z,23.80
2023-04-15T06:44:16.616Z,23.80
2023-04-15T06:46:43.404Z,23.77
2023-04-15T06:49:10.396Z,23.76
2023-04-15T06:51:38.630Z,23.77
2023-04-15T06:54:05.430Z,23.69
2023-04-15T06:56:32.374Z,23.65
2023-04-15T06:58:59.358Z,23.66
2023-04-15T07:01:26.393Z,23.88
2023-04-15T07:03:53.382Z,24.14
2023-04-15T07:06:20.262Z,24.27
2023-04-15T07:08:48.420Z,24.35
2023-04-15T07:11:15.251Z,24.36
2023-04-15T07:13:42.034Z,24.32
2023-04-15T07:16:08.818Z,24.33
2023-04-15T07:18:35.664Z,24.26
2023-04-15T07:21:02.577Z,24.27
2023-04-15T07:23:29.525Z,24.18
2023-04-15T07:25:57.891Z,24.13
2023-04-15T07:28:25.347Z,24.08
2023-04-15T07:30:52.355Z,24.08
2023-04-15T07:33:19.288Z,24.08
2023-04-15T07:35:46.121Z,24.00
2023-04-15T07:38:12.936Z,23.97
2023-04-15T07:40:39.860Z,23.87
2023-04-15T07:43:08.232Z,23.88
2023-04-15T07:45:35.037Z,23.79
2023-04-15T07:48:01.923Z,23.78
2023-04-15T07:50:28.901Z,23.78
2023-04-15T07:52:55.703Z,23.80
2023-04-15T07:55:22.937Z,23.80
2023-04-15T07:57:50.087Z,23.81
2023-04-15T08:00:18.309Z,23.85
2023-04-15T08:02:45.291Z,23.91
2023-04-15T08:05:13.136Z,23.85
2023-04-15T08:07:40.113Z,23.82
2023-04-15T08:10:07.526Z,23.81
2023-04-15T08:12:34.315Z,23.73
2023-04-15T08:15:01.178Z,23.74
2023-04-15T08:17:29.420Z,23.76
2023-04-15T08:19:56.274Z,23.81
2023-04-15T08:22:23.151Z,23.80
2023-04-15T08:24:50.026Z,23.81
2023-04-15T08:27:17.249Z,23.78
2023-04-15T08:29:44.115Z,23.69
2023-04-15T08:32:11.021Z,23.67
2023-04-15T08:34:39.523Z,23.65
2023-04-15T08:37:06.347Z,23.66
2023-04-15T08:39:33.219Z,23.65
2023-04-15T08:42:01.432Z,23.70
2023-04-15T08:44:30.030Z,23.72
2023-04-15T08:46:57.420Z,23.70
2023-04-15T08:49:26.945Z,23.66
2023-04-15T08:51:55.397Z,23.65
2023-04-15T08:54:22.516Z,23.68
2023-04-15T08:56:50.136Z,23.71
2023-04-15T08:59:17.250Z,23.68
2023-04-15T09:01:44.085Z,23.66
2023-04-15T09:04:11.399Z,23.66
2023-04-15T09:06:39.716Z,23.65
2023-04-15T09:09:08.108Z,23.59
2023-04-15T09:11:35.012Z,23.61
2023-04-15T09:14:02.052Z,23.55
2023-04-15T09:16:28.962Z,23.48
2023-04-15T09:18:55.797Z,23.49
2023-04-15T09:21:23.426Z,23.49
2023-04-15T09:23:57.803Z,23.52
2023-04-15T09:26:33.520Z,23.53
2023-04-15T09:29:09.911Z,23.39
2023-04-15T09:31:36.987Z,23.67
2023-04-15T09:34:03.961Z,23.71
2023-04-15T09:36:36.705Z,23.73
2023-04-15T09:39:03.712Z,23.80
2023-04-15T09:41:30.515Z,23.83
2023-04-15T09:43:58.926Z,23.90
2023-04-15T09:46:40.606Z,23.94
2023-04-15T09:49:07.897Z,23.94
2023-04-15T09:51:35.238Z,23.97
2023-04-15T09:54:02.370Z,24.05
2023-04-15T09:56:32.246Z,24.05
2023-04-15T09:59:00.444Z,24.04
2023-04-15T10:01:27.482Z,24.05
2023-04-15T10:03:56.926Z,23.96
2023-04-15T10:06:25.914Z,23.93
2023-04-15T10:08:53.984Z,23.92
2023-04-15T10:11:22.135Z,23.92
2023-04-15T10:13:49.396Z,23.96
2023-04-15T10:16:19.909Z,23.92
2023-04-15T10:18:47.429Z,23.77
2023-04-15T10:21:14.562Z,23.97
2023-04-15T10:23:41.549Z,24.03
2023-04-15T10:26:09.857Z,24.05
2023-04-15T10:28:36.685Z,24.12
2023-04-15T10:31:04.893Z,24.18
2023-04-15T10:33:33.777Z,24.21
2023-04-15T10:36:00.881Z,24.20
2023-04-15T10:38:37.965Z,24.30
2023-04-15T10:41:12.462Z,24.28
2023-04-15T10:43:39.296Z,24.25
2023-04-15T10:46:06.371Z,24.27
2023-04-15T10:48:34.915Z,24.05
2023-04-15T10:51:01.822Z,24.24
2023-04-15T10:53:29.269Z,24.15
2023-04-15T10:55:56.937Z,24.13
2023-04-15T10:58:23.949Z,24.12
2023-04-15T11:00:51.270Z,24.11
2023-04-15T11:03:34.272Z,24.09
2023-04-15T11:06:02.789Z,24.13
2023-04-15T11:08:48.557Z,24.13
2023-04-15T11:11:15.430Z,24.14
2023-04-15T11:13:47.856Z,24.20
2023-04-15T11:16:14.797Z,24.24
2023-04-15T11:18:41.666Z,24.24
2023-04-15T11:21:10.020Z,24.25
2023-04-15T11:23:38.310Z,24.30
2023-04-15T11:26:06.538Z,24.37
2023-04-15T11:28:33.446Z,24.37
2023-04-15T11:31:06.004Z,24.37
2023-04-15T11:33:32.923Z,24.36
2023-04-15T11:35:59.847Z,24.37
2023-04-15T11:38:28.049Z,24.34
2023-04-15T11:40:54.899Z,24.28
2023-04-15T11:43:22.993Z,24.33
2023-04-15T11:45:51.319Z,24.25
2023-04-15T11:48:18.997Z,24.28
2023-04-15T11:50:45.824Z,24.26
2023-04-15T11:53:13.348Z,24.27
2023-04-15T11:55:45.775Z,24.32
2023-04-15T11:58:15.076Z,24.38
2023-04-15T12:00:46.611Z,24.35
2023-04-15T12:03:14.617Z,24.35
2023-04-15T12:06:00.249Z,24.32
2023-04-15T12:08:27.053Z,24.34
2023-04-15T12:11:00.022Z,24.36
2023-04-15T12:13:27.692Z,24.38
2023-04-15T12:15:55.638Z,24.30
2023-04-15T12:18:25.065Z,24.44
2023-04-15T12:20:51.893Z,24.43
2023-04-15T12:23:19.433Z,24.49
2023-04-15T12:25:51.102Z,24.37
2023-04-15T12:28:19.281Z,24.29
2023-04-15T12:30:49.305Z,24.27
2023-04-15T12:33:16.158Z,24.21
2023-04-15T12:35:42.977Z,24.28
2023-04-15T12:38:09.806Z,24.44
2023-04-15T12:40:36.649Z,24.47
2023-04-15T12:43:03.460Z,24.54
2023-04-15T12:45:31.693Z,24.80
2023-04-15T12:47:58.567Z,24.88
2023-04-15T12:50:25.401Z,25.23
2023-04-15T12:52:52.208Z,25.21
2023-04-15T12:55:19.062Z,25.23
2023-04-15T12:57:45.865Z,25.09
2023-04-15T13:00:13.343Z,25.02
2023-04-15T13:02:43.481Z,25.52
2023-04-15T13:05:10.414Z,25.24
2023-04-15T13:07:37.237Z,24.92
2023-04-15T13:10:04.309Z,24.55
2023-04-15T13:12:31.164Z,25.71
2023-04-15T13:14:57.957Z,25.54
2023-04-15T13:17:24.828Z,25.49
2023-04-15T13:19:53.032Z,25.43
2023-04-15T13:22:19.855Z,25.46
2023-04-15T13:24:46.801Z,25.51
2023-04-15T13:27:13.613Z,25.66
2023-04-15T13:29:40.417Z,26.22
2023-04-15T13:32:07.519Z,26.32
2023-04-15T13:34:34.348Z,26.19
2023-04-15T13:37:07.262Z,26.31
2023-04-15T13:39:34.095Z,26.32
2023-04-15T13:42:00.909Z,26.28
2023-04-15T13:44:27.777Z,26.32
2023-04-15T13:46:54.704Z,26.37
2023-04-15T13:49:21.518Z,26.40
2023-04-15T13:51:48.358Z,26.39
2023-04-15T13:54:16.529Z,26.41
2023-04-15T13:56:43.390Z,26.25
2023-04-15T13:59:10.248Z,25.84
2023-04-15T14:01:37.076Z,25.82
2023-04-15T14:04:04.397Z,25.73
2023-04-15T14:06:31.578Z,25.75
2023-04-15T14:08:58.397Z,25.74
2023-04-15T14:11:26.604Z,25.74
2023-04-15T14:13:53.530Z,25.72
2023-04-15T14:16:20.378Z,25.74
2023-04-15T14:18:47.198Z,25.85
2023-04-15T14:21:14.067Z,25.93
2023-04-15T14:23:40.893Z,25.93
2023-04-15T14:26:07.842Z,25.93
2023-04-15T14:28:36.101Z,25.95
2023-04-15T14:31:02.923Z,26.00
2023-04-15T14:33:29.760Z,25.95
2023-04-15T14:35:56.630Z,25.91
2023-04-15T14:38:23.540Z,25.89
2023-04-15T14:40:50.366Z,25.73
2023-04-15T14:43:17.192Z,25.71
2023-04-15T14:45:45.620Z,25.69
2023-04-15T14:48:12.805Z,25.69
2023-04-15T14:50:40.020Z,25.70
2023-04-15T14:53:06.819Z,25.65
2023-04-15T14:55:33.615Z,25.51
2023-04-15T14:58:00.477Z,25.71
2023-04-15T15:00:27.318Z,25.76
2023-04-15T15:02:55.612Z,25.79
2023-04-15T15:05:22.732Z,25.83
2023-04-15T15:07:49.695Z,25.83
2023-04-15T15:10:16.527Z,25.88
2023-04-15T15:13:02.249Z,25.81
2023-04-15T15:15:29.340Z,25.73
2023-04-15T15:17:57.613Z,25.73
2023-04-15T15:20:24.669Z,25.72
2023-04-15T15:22:51.547Z,25.76
2023-04-15T15:25:18.407Z,25.68
2023-04-15T15:27:45.314Z,25.53
2023-04-15T15:30:12.633Z,25.40
2023-04-15T15:32:39.691Z,25.44
2023-04-15T15:35:08.393Z,26.06
2023-04-15T15:37:35.475Z,26.02
2023-04-15T15:40:03.896Z,25.88
2023-04-15T15:42:31.359Z,25.78
2023-04-15T15:44:58.170Z,25.65
2023-04-15T15:47:25.037Z,25.41
2023-04-15T15:49:51.909Z,25.33
2023-04-15T15:52:20.106Z,25.12
2023-04-15T15:54:48.158Z,25.08
2023-04-15T15:57:15.007Z,25.02
2023-04-15T15:59:41.828Z,24.93
2023-04-15T16:02:09.131Z,24.87
2023-04-15T16:04:36.137Z,24.74
2023-04-15T16:07:03.140Z,24.77
2023-04-15T16:09:31.350Z,24.70
2023-04-15T16:11:58.573Z,24.76
2023-04-15T16:14:25.874Z,24.65
2023-04-15T16:16:53.173Z,24.60
2023-04-15T16:19:20.593Z,24.44
2023-04-15T16:21:47.845Z,24.51
2023-04-15T16:24:14.664Z,24.53
2023-04-15T16:26:42.890Z,24.58
2023-04-15T16:29:09.685Z,24.62
2023-04-15T16:31:36.550Z,24.57
2023-04-15T16:34:03.477Z,24.60
2023-04-15T16:36:30.309Z,24.63
2023-04-15T16:38:57.120Z,24.59
2023-04-15T16:41:24.181Z,24.60
2023-04-15T16:43:52.408Z,24.55
2023-04-15T16:46:19.307Z,24.54
2023-04-15T16:48:46.143Z,24.48
2023-04-15T16:51:12.968Z,24.46
2023-04-15T16:53:39.780Z,24.37
2023-04-15T16:56:06.763Z,24.31
2023-04-15T16:58:33.585Z,24.30
2023-04-15T17:01:02.098Z,24.26
2023-04-15T17:03:29.210Z,24.31
2023-04-15T17:05:56.114Z,24.16
2023-04-15T17:08:22.911Z,24.17
2023-04-15T17:10:49.749Z,24.26
2023-04-15T17:13:16.562Z,24.34
2023-04-15T17:15:43.400Z,24.35
2023-04-15T17:18:11.610Z,24.35
2023-04-15T17:20:38.816Z,24.38
2023-04-15T17:23:05.650Z,24.34
2023-04-15T17:25:32.503Z,24.32
2023-04-15T17:28:00.633Z,24.35
2023-04-15T17:30:28.615Z,24.33
2023-04-15T17:32:55.519Z,24.33
2023-04-15T17:35:23.804Z,24.36
2023-04-15T17:37:50.613Z,24.21
2023-04-15T17:40:17.483Z,24.17
2023-04-15T17:42:44.312Z,24.18
2023-04-15T17:45:11.430Z,24.13
2023-04-15T17:47:38.485Z,24.12
2023-04-15T17:50:05.923Z,24.11
2023-04-15T17:52:34.108Z,24.12
2023-04-15T17:55:00.958Z,24.18
2023-04-15T17:57:27.884Z,24.20
2023-04-15T17:59:54.755Z,24.21
2023-04-15T18:02:21.745Z,24.15
2023-04-15T18:04:48.836Z,24.14
2023-04-15T18:07:15.887Z,24.14
2023-04-15T18:09:44.113Z,24.10
2023-04-15T18:12:11.150Z,24.12
2023-04-15T18:14:38.014Z,24.12
2023-04-15T18:17:04.972Z,24.12
2023-04-15T18:19:31.832Z,24.12
2023-04-15T18:21:58.698Z,24.07
2023-04-15T18:24:25.564Z,24.01
2023-04-15T18:26:53.766Z,24.02
2023-04-15T18:29:20.632Z,24.02
2023-04-15T18:31:47.591Z,23.99
2023-04-15T18:34:14.458Z,24.01
2023-04-15T18:36:41.453Z,24.05
2023-04-15T18:39:08.432Z,24.05
2023-04-15T18:41:35.350Z,24.06
2023-04-15T18:44:03.507Z,24.06
2023-04-15T18:46:30.394Z,24.05
2023-04-15T18:48:57.222Z,24.04
2023-04-15T18:51:24.020Z,24.04
2023-04-15T18:53:50.902Z,24.04
2023-04-15T18:56:17.745Z,24.02
2023-04-15T18:59:20.793Z,24.03
2023-04-15T19:01:32.797Z,24.03
2023-04-15T19:03:59.669Z,23.97
2023-04-15T19:06:26.579Z,23.93
2023-04-15T19:08:53.530Z,23.92
2023-04-15T19:11:20.380Z,23.89
2023-04-15T19:13:47.200Z,23.90
2023-04-15T19:16:14.369Z,23.90
2023-04-15T19:18:42.603Z,23.90
2023-04-15T19:21:09.497Z,23.93
2023-04-15T19:23:36.358Z,23.94
2023-04-15T19:26:03.206Z,23.96
2023-04-15T19:28:30.075Z,23.94
2023-04-15T19:30:56.955Z,23.94
2023-04-15T19:33:23.758Z,23.95
2023-04-15T19:35:51.916Z,23.92
2023-04-15T19:38:18.740Z,23.92
2023-04-15T19:40:45.528Z,23.92
2023-04-15T19:43:12.320Z,23.91
2023-04-15T19:45:39.201Z,23.90
2023-04-15T19:48:06.004Z,23.89
2023-04-15T19:50:32.897Z,23.85
2023-04-15T19:53:01.090Z,23.83
2023-04-15T19:55:27.884Z,23.82
2023-04-15T19:57:54.778Z,23.83
2023-04-15T20:00:21.794Z,23.82
2023-04-15T20:02:48.787Z,23.86
2023-04-15T20:05:15.724Z,23.84
2023-04-15T20:07:42.758Z,23.87
2023-04-15T20:10:12.632Z,23.87
2023-04-15T20:12:50.839Z,23.89
2023-04-15T20:15:20.142Z,23.89
2023-04-15T20:17:47.043Z,23.70
2023-04-15T20:20:13.879Z,23.85
2023-04-15T20:22:40.730Z,23.85
2023-04-15T20:25:07.789Z,23.85
2023-04-15T20:27:35.964Z,23.85
2023-04-15T20:30:02.886Z,23.84
2023-04-15T20:32:29.712Z,23.83
2023-04-15T20:34:56.532Z,23.80
2023-04-15T20:37:23.458Z,23.77
2023-04-15T20:39:50.295Z,23.74
2023-04-15T20:42:17.403Z,23.75
2023-04-15T20:44:45.614Z,23.75
2023-04-15T20:47:12.478Z,23.76
2023-04-15T20:49:39.690Z,23.72
2023-04-15T20:52:07.446Z,23.77
2023-04-15T20:54:34.259Z,23.74
2023-04-15T20:57:01.314Z,23.80
2023-04-15T20:59:28.193Z,23.82
2023-04-15T21:01:56.488Z,23.83
2023-04-15T21:04:23.608Z,23.81
2023-04-15T21:06:50.531Z,23.80
2023-04-15T21:09:17.390Z,23.78
2023-04-15T21:11:59.893Z,23.78
2023-04-15T21:14:28.352Z,23.77
2023-04-15T21:16:56.853Z,23.77
2023-04-15T21:19:23.723Z,23.75
2023-04-15T21:21:50.540Z,23.70
2023-04-15T21:24:17.357Z,23.69
2023-04-15T21:26:44.168Z,23.70
2023-04-15T21:29:11.889Z,23.51
2023-04-15T21:31:39.058Z,23.68
2023-04-15T21:34:07.319Z,23.69
2023-04-15T21:36:34.343Z,23.70
2023-04-15T21:39:01.235Z,23.69
2023-04-15T21:41:28.048Z,23.72
2023-04-15T21:43:54.871Z,23.73
2023-04-15T21:46:25.448Z,23.72
2023-04-15T21:49:00.088Z,23.72
2023-04-15T21:51:28.246Z,23.74
2023-04-15T21:53:55.059Z,23.72
2023-04-15T21:56:23.844Z,23.71
2023-04-15T21:58:51.004Z,23.68
2023-04-15T22:01:17.852Z,23.69
2023-04-15T22:03:44.870Z,23.68
2023-04-15T22:06:11.809Z,23.65
2023-04-15T22:08:52.485Z,23.61
2023-04-15T22:11:23.603Z,23.58
2023-04-15T22:13:50.399Z,23.58
2023-04-15T22:16:17.251Z,23.56
2023-04-15T22:18:44.191Z,23.57
2023-04-15T22:21:11.037Z,23.56
2023-04-15T22:23:37.840Z,23.60
2023-04-15T22:26:06.899Z,23.63
2023-04-15T22:28:33.724Z,23.64
2023-04-15T22:31:00.534Z,23.65
2023-04-15T22:33:27.457Z,23.64
2023-04-15T22:35:54.320Z,23.63
2023-04-15T22:38:21.108Z,23.63
2023-04-15T22:40:48.038Z,23.63
2023-04-15T22:43:16.194Z,23.60
2023-04-15T22:45:47.727Z,23.57
2023-04-15T22:48:14.569Z,23.58
2023-04-15T22:50:41.359Z,23.57
2023-04-15T22:53:08.334Z,23.50
2023-04-15T22:55:35.152Z,23.48
2023-04-15T22:58:01.962Z,23.49
2023-04-15T23:00:30.169Z,23.54
2023-04-15T23:02:57.099Z,23.50
2023-04-15T23:05:24.081Z,23.47
2023-04-15T23:07:50.901Z,23.54
2023-04-15T23:10:17.719Z,23.60
2023-04-15T23:12:44.545Z,23.60
2023-04-15T23:15:11.606Z,23.57
2023-04-15T23:17:39.883Z,23.58
2023-04-15T23:20:07.059Z,23.58
2023-04-15T23:22:33.861Z,23.58
2023-04-15T23:25:00.741Z,23.58
2023-04-15T23:27:27.546Z,23.55
2023-04-15T23:29:54.557Z,23.54
2023-04-15T23:32:21.421Z,23.55
2023-04-15T23:34:49.589Z,23.51
2023-04-15T23:37:16.877Z,23.50
2023-04-15T23:39:44.040Z,23.34
2023-04-15T23:42:10.902Z,23.39
2023-04-15T23:44:37.701Z,23.39
2023-04-15T23:47:04.808Z,23.39
2023-04-15T23:49:31.608Z,23.39
2023-04-15T23:51:59.907Z,23.41
2023-04-15T23:54:26.720Z,23.43
2023-04-15T23:56:53.617Z,23.44
2023-04-15T23:59:20.426Z,23.48
